Airfield :
LOGIN :

Register | Disclaimer

   EN    FR    IT 

 










Legend :    VFR   Marginal VFR   IFR   Intensive IFR   Very Intensive IFR
Visi :
Ceiling :
>= 8 km
>= 3000ft
5 to 8 km
1000 to 3000 ft
1500m to 5 km
500 to 1000 ft
800 to 1500m
200 to 500 ft
< 800m
< 200 ft
Symbols :   Thunderstorms  Fog  Heavy snow  Heavy precipitations  Wind > 20 kt
SIGMETs :     Misc.  Thunderstorms  Icing  Turbulence  Mountain Waves  Volcanic Ashes






- Airport Elevation : 200 ft


EBBL - Klein Brogel AB

CURRENT METAR :
  • 130425Z AUTO 13003KT 9999 OVC012/// 04/03 Q0974 GRN

EXPIRED METARs :
  • 130411Z AUTO 14004KT 3400 -RA OVC014/// 04/02 Q0974 YLO
  • 130403Z AUTO 14004KT 9999 OVC014/// 04/02 Q0974 GRN
  • 130325Z AUTO 15005KT 9999 OVC015/// 04/02 Q0975 WHT
  • 130255Z AUTO 16005KT 9999 OVC018/// 04/02 Q0976 WHT
  • 130155Z AUTO 16006KT 9999 SCT015/// SCT024/// BKN036/// 04/02 Q0977 WHT

TAF TAF EBBL
Valid from the 12 at 19:00 until the 13 at 07:00 UTC


121541Z 1219/1307 18012G25KT 8000 SCT020 BKN030
BECMG 1220/1222 3000 -RA/DZ SCT008 BKN010
TEMPO 1221/1302 18015G30KT 2000 RA/DZ SCT006 BKN010 OVC020
TEMPO 1302/1307 18015G30KT 3000 SHRA SCT006 SCT012TCU OVC020



MET'MAP, your aeronautical weather chart ! - Copyright ORBIFLY December 2007 - Disclaimer

ORBIFLY MET'MAP TEAM :

Programming & Development : Alexandra Zaïnal
Concept & original design : Baudouin d'Aumeries
Assistance for programming : Marc-Olivier Méhu
Technical & hardware support : Manuel Goepfert

Contact : metmap@orbifly.com




SOURCES & CREDITS :

   NOAA